sensor_id;sensor_type;location;lat;lon;timestamp;P1;durP1;ratioP1;P2;durP2;ratioP2
6452;SDS011;3259;51.080;13.712;2023-04-24T00:02:20;2.05;;;1.33;;
6452;SDS011;3259;51.080;13.712;2023-04-24T00:05:11;1.10;;;1.05;;
6452;SDS011;3259;51.080;13.712;2023-04-24T00:08:00;1.15;;;1.15;;
6452;SDS011;3259;51.080;13.712;2023-04-24T00:10:48;1.33;;;1.23;;
6452;SDS011;3259;51.080;13.712;2023-04-24T00:13:39;2.03;;;1.20;;
6452;SDS011;3259;51.080;13.712;2023-04-24T00:16:27;1.33;;;1.20;;
6452;SDS011;3259;51.080;13.712;2023-04-24T00:19:16;1.48;;;1.10;;
6452;SDS011;3259;51.080;13.712;2023-04-24T00:22:09;1.00;;;1.00;;
6452;SDS011;3259;51.080;13.712;2023-04-24T00:24:57;1.35;;;1.20;;
6452;SDS011;3259;51.080;13.712;2023-04-24T00:27:46;4.60;;;1.55;;
6452;SDS011;3259;51.080;13.712;2023-04-24T00:30:35;1.27;;;1.17;;
6452;SDS011;3259;51.080;13.712;2023-04-24T00:33:23;2.97;;;1.00;;
6452;SDS011;3259;51.080;13.712;2023-04-24T00:36:12;2.28;;;1.17;;
6452;SDS011;3259;51.080;13.712;2023-04-24T00:39:02;2.05;;;1.10;;
6452;SDS011;3259;51.080;13.712;2023-04-24T00:41:51;1.73;;;1.63;;
6452;SDS011;3259;51.080;13.712;2023-04-24T00:44:40;3.20;;;0.82;;
6452;SDS011;3259;51.080;13.712;2023-04-24T00:47:29;1.25;;;1.23;;
6452;SDS011;3259;51.080;13.712;2023-04-24T00:50:18;1.50;;;1.20;;
6452;SDS011;3259;51.080;13.712;2023-04-24T00:53:09;0.80;;;0.80;;
6452;SDS011;3259;51.080;13.712;2023-04-24T00:55:59;1.23;;;1.15;;
6452;SDS011;3259;51.080;13.712;2023-04-24T00:58:48;1.65;;;1.30;;
6452;SDS011;3259;51.080;13.712;2023-04-24T01:01:37;1.20;;;1.10;;
6452;SDS011;3259;51.080;13.712;2023-04-24T01:04:28;1.65;;;1.25;;
6452;SDS011;3259;51.080;13.712;2023-04-24T01:07:18;1.08;;;0.73;;
6452;SDS011;3259;51.080;13.712;2023-04-24T01:10:08;2.03;;;1.08;;
6452;SDS011;3259;51.080;13.712;2023-04-24T01:12:59;2.10;;;0.75;;
6452;SDS011;3259;51.080;13.712;2023-04-24T01:15:47;1.25;;;1.15;;
6452;SDS011;3259;51.080;13.712;2023-04-24T01:18:36;1.30;;;1.20;;
6452;SDS011;3259;51.080;13.712;2023-04-24T01:21:26;1.50;;;0.80;;
6452;SDS011;3259;51.080;13.712;2023-04-24T01:24:16;1.20;;;1.10;;
6452;SDS011;3259;51.080;13.712;2023-04-24T01:27:06;1.33;;;1.02;;
6452;SDS011;3259;51.080;13.712;2023-04-24T01:29:55;2.13;;;1.05;;
6452;SDS011;3259;51.080;13.712;2023-04-24T01:32:44;2.25;;;1.10;;
6452;SDS011;3259;51.080;13.712;2023-04-24T01:35:33;1.33;;;0.90;;
6452;SDS011;3259;51.080;13.712;2023-04-24T01:38:23;2.50;;;1.20;;
6452;SDS011;3259;51.080;13.712;2023-04-24T01:41:13;2.58;;;1.15;;
6452;SDS011;3259;51.080;13.712;2023-04-24T01:44:02;1.15;;;1.05;;
6452;SDS011;3259;51.080;13.712;2023-04-24T01:46:51;0.85;;;0.85;;
6452;SDS011;3259;51.080;13.712;2023-04-24T01:49:40;1.20;;;1.10;;
6452;SDS011;3259;51.080;13.712;2023-04-24T01:52:29;1.52;;;0.93;;
6452;SDS011;3259;51.080;13.712;2023-04-24T01:55:19;1.10;;;1.10;;
6452;SDS011;3259;51.080;13.712;2023-04-24T01:58:10;1.38;;;0.85;;
6452;SDS011;3259;51.080;13.712;2023-04-24T02:00:59;3.35;;;1.50;;
6452;SDS011;3259;51.080;13.712;2023-04-24T02:03:48;1.00;;;1.00;;
6452;SDS011;3259;51.080;13.712;2023-04-24T02:06:36;2.10;;;1.65;;
6452;SDS011;3259;51.080;13.712;2023-04-24T02:09:26;0.90;;;0.90;;
6452;SDS011;3259;51.080;13.712;2023-04-24T02:12:14;1.05;;;1.00;;
6452;SDS011;3259;51.080;13.712;2023-04-24T02:15:05;1.33;;;1.23;;
6452;SDS011;3259;51.080;13.712;2023-04-24T02:17:54;2.22;;;1.13;;
6452;SDS011;3259;51.080;13.712;2023-04-24T02:20:43;1.27;;;1.13;;
6452;SDS011;3259;51.080;13.712;2023-04-24T02:23:31;1.10;;;1.00;;
6452;SDS011;3259;51.080;13.712;2023-04-24T02:26:20;2.00;;;1.23;;
6452;SDS011;3259;51.080;13.712;2023-04-24T02:29:09;1.23;;;1.20;;
6452;SDS011;3259;51.080;13.712;2023-04-24T02:31:59;1.40;;;1.30;;
6452;SDS011;3259;51.080;13.712;2023-04-24T02:34:48;1.20;;;1.10;;
6452;SDS011;3259;51.080;13.712;2023-04-24T02:37:36;1.20;;;1.00;;
6452;SDS011;3259;51.080;13.712;2023-04-24T02:40:25;1.30;;;1.20;;
6452;SDS011;3259;51.080;13.712;2023-04-24T02:43:14;1.23;;;1.13;;
6452;SDS011;3259;51.080;13.712;2023-04-24T02:46:02;1.38;;;1.10;;
6452;SDS011;3259;51.080;13.712;2023-04-24T02:48:52;1.50;;;1.42;;
6452;SDS011;3259;51.080;13.712;2023-04-24T02:51:45;3.95;;;1.10;;
6452;SDS011;3259;51.080;13.712;2023-04-24T02:54:34;1.20;;;1.10;;
6452;SDS011;3259;51.080;13.712;2023-04-24T02:57:23;2.85;;;1.35;;
6452;SDS011;3259;51.080;13.712;2023-04-24T03:00:12;2.00;;;1.05;;
6452;SDS011;3259;51.080;13.712;2023-04-24T03:03:02;4.75;;;1.23;;
6452;SDS011;3259;51.080;13.712;2023-04-24T03:05:53;1.88;;;1.13;;
6452;SDS011;3259;51.080;13.712;2023-04-24T03:08:42;2.58;;;1.08;;
6452;SDS011;3259;51.080;13.712;2023-04-24T03:11:30;1.70;;;0.98;;
6452;SDS011;3259;51.080;13.712;2023-04-24T03:14:19;1.10;;;1.00;;
6452;SDS011;3259;51.080;13.712;2023-04-24T03:17:08;0.88;;;0.88;;
6452;SDS011;3259;51.080;13.712;2023-04-24T03:19:56;1.08;;;0.98;;
6452;SDS011;3259;51.080;13.712;2023-04-24T03:22:46;0.85;;;0.85;;
6452;SDS011;3259;51.080;13.712;2023-04-24T03:25:35;1.45;;;1.10;;
6452;SDS011;3259;51.080;13.712;2023-04-24T03:28:24;1.48;;;1.00;;
6452;SDS011;3259;51.080;13.712;2023-04-24T03:31:12;1.33;;;1.23;;
6452;SDS011;3259;51.080;13.712;2023-04-24T03:34:02;1.33;;;1.23;;
6452;SDS011;3259;51.080;13.712;2023-04-24T03:36:50;1.00;;;1.00;;
6452;SDS011;3259;51.080;13.712;2023-04-24T03:39:41;1.60;;;0.90;;
6452;SDS011;3259;51.080;13.712;2023-04-24T03:42:30;1.02;;;0.80;;
6452;SDS011;3259;51.080;13.712;2023-04-24T03:45:19;0.70;;;0.70;;
6452;SDS011;3259;51.080;13.712;2023-04-24T03:48:08;1.15;;;1.05;;
6452;SDS011;3259;51.080;13.712;2023-04-24T03:50:56;1.80;;;0.80;;
6452;SDS011;3259;51.080;13.712;2023-04-24T03:53:45;0.68;;;0.68;;
6452;SDS011;3259;51.080;13.712;2023-04-24T03:56:35;0.68;;;0.68;;
6452;SDS011;3259;51.080;13.712;2023-04-24T03:59:24;1.33;;;0.80;;
6452;SDS011;3259;51.080;13.712;2023-04-24T04:02:12;0.80;;;0.80;;
6452;SDS011;3259;51.080;13.712;2023-04-24T04:05:01;1.05;;;0.70;;
6452;SDS011;3259;51.080;13.712;2023-04-24T04:07:50;4.85;;;0.73;;
6452;SDS011;3259;51.080;13.712;2023-04-24T04:10:39;0.70;;;0.70;;
6452;SDS011;3259;51.080;13.712;2023-04-24T04:13:29;1.13;;;0.52;;
6452;SDS011;3259;51.080;13.712;2023-04-24T04:16:18;0.75;;;0.60;;
6452;SDS011;3259;51.080;13.712;2023-04-24T04:19:06;0.55;;;0.55;;
6452;SDS011;3259;51.080;13.712;2023-04-24T04:21:55;2.97;;;0.47;;
6452;SDS011;3259;51.080;13.712;2023-04-24T04:24:44;0.38;;;0.38;;
6452;SDS011;3259;51.080;13.712;2023-04-24T04:27:32;1.27;;;0.60;;
6452;SDS011;3259;51.080;13.712;2023-04-24T04:30:23;0.70;;;0.50;;
6452;SDS011;3259;51.080;13.712;2023-04-24T04:33:12;0.68;;;0.40;;
6452;SDS011;3259;51.080;13.712;2023-04-24T04:36:01;0.40;;;0.40;;
6452;SDS011;3259;51.080;13.712;2023-04-24T04:38:50;0.35;;;0.35;;
6452;SDS011;3259;51.080;13.712;2023-04-24T04:41:39;0.82;;;0.40;;
6452;SDS011;3259;51.080;13.712;2023-04-24T04:44:28;0.77;;;0.38;;
6452;SDS011;3259;51.080;13.712;2023-04-24T04:47:18;1.70;;;0.40;;
6452;SDS011;3259;51.080;13.712;2023-04-24T04:50:09;1.88;;;0.40;;
6452;SDS011;3259;51.080;13.712;2023-04-24T04:52:58;0.50;;;0.47;;
6452;SDS011;3259;51.080;13.712;2023-04-24T04:55:47;0.50;;;0.40;;
6452;SDS011;3259;51.080;13.712;2023-04-24T04:58:35;0.80;;;0.30;;
6452;SDS011;3259;51.080;13.712;2023-04-24T05:01:24;0.40;;;0.22;;
6452;SDS011;3259;51.080;13.712;2023-04-24T05:04:15;0.77;;;0.40;;
6452;SDS011;3259;51.080;13.712;2023-04-24T05:07:04;1.00;;;0.60;;
6452;SDS011;3259;51.080;13.712;2023-04-24T05:09:53;1.65;;;0.30;;
6452;SDS011;3259;51.080;13.712;2023-04-24T05:12:41;1.35;;;0.40;;
6452;SDS011;3259;51.080;13.712;2023-04-24T05:15:32;0.20;;;0.20;;
6452;SDS011;3259;51.080;13.712;2023-04-24T05:18:20;0.25;;;0.22;;
6452;SDS011;3259;51.080;13.712;2023-04-24T05:21:10;0.30;;;0.30;;
6452;SDS011;3259;51.080;13.712;2023-04-24T05:23:59;0.47;;;0.40;;
6452;SDS011;3259;51.080;13.712;2023-04-24T05:26:48;0.35;;;0.30;;
6452;SDS011;3259;51.080;13.712;2023-04-24T05:29:36;2.10;;;0.38;;
6452;SDS011;3259;51.080;13.712;2023-04-24T05:32:25;0.60;;;0.32;;
6452;SDS011;3259;51.080;13.712;2023-04-24T05:35:14;2.53;;;0.50;;
6452;SDS011;3259;51.080;13.712;2023-04-24T05:38:05;1.58;;;0.32;;
6452;SDS011;3259;51.080;13.712;2023-04-24T05:40:53;0.57;;;0.30;;
6452;SDS011;3259;51.080;13.712;2023-04-24T05:43:42;1.55;;;0.28;;
6452;SDS011;3259;51.080;13.712;2023-04-24T05:46:31;0.32;;;0.32;;
6452;SDS011;3259;51.080;13.712;2023-04-24T05:49:20;4.18;;;0.20;;
6452;SDS011;3259;51.080;13.712;2023-04-24T05:52:08;4.15;;;0.57;;
6452;SDS011;3259;51.080;13.712;2023-04-24T05:54:59;2.60;;;0.60;;
6452;SDS011;3259;51.080;13.712;2023-04-24T05:57:47;3.03;;;0.60;;
6452;SDS011;3259;51.080;13.712;2023-04-24T06:00:36;3.72;;;0.50;;
6452;SDS011;3259;51.080;13.712;2023-04-24T06:03:26;4.03;;;1.02;;
6452;SDS011;3259;51.080;13.712;2023-04-24T06:06:15;0.85;;;0.50;;
6452;SDS011;3259;51.080;13.712;2023-04-24T06:09:08;2.92;;;0.60;;
6452;SDS011;3259;51.080;13.712;2023-04-24T06:11:58;2.05;;;0.30;;
6452;SDS011;3259;51.080;13.712;2023-04-24T06:14:47;1.67;;;0.43;;
6452;SDS011;3259;51.080;13.712;2023-04-24T06:17:36;3.65;;;0.52;;
6452;SDS011;3259;51.080;13.712;2023-04-24T06:20:25;1.13;;;0.45;;
6452;SDS011;3259;51.080;13.712;2023-04-24T06:23:14;1.45;;;0.35;;
6452;SDS011;3259;51.080;13.712;2023-04-24T06:26:03;1.52;;;0.52;;
6452;SDS011;3259;51.080;13.712;2023-04-24T06:28:54;1.70;;;0.38;;
6452;SDS011;3259;51.080;13.712;2023-04-24T06:31:42;1.20;;;0.38;;
6452;SDS011;3259;51.080;13.712;2023-04-24T06:34:31;0.60;;;0.40;;
6452;SDS011;3259;51.080;13.712;2023-04-24T06:37:20;0.20;;;0.20;;
6452;SDS011;3259;51.080;13.712;2023-04-24T06:40:09;1.05;;;0.50;;
6452;SDS011;3259;51.080;13.712;2023-04-24T06:42:59;0.88;;;0.30;;
6452;SDS011;3259;51.080;13.712;2023-04-24T06:45:50;0.65;;;0.43;;
6452;SDS011;3259;51.080;13.712;2023-04-24T06:48:39;4.68;;;1.08;;
6452;SDS011;3259;51.080;13.712;2023-04-24T06:51:28;15.52;;;3.67;;
6452;SDS011;3259;51.080;13.712;2023-04-24T06:54:19;6.32;;;1.30;;
6452;SDS011;3259;51.080;13.712;2023-04-24T06:57:08;6.25;;;1.20;;
6452;SDS011;3259;51.080;13.712;2023-04-24T06:59:58;1.95;;;0.93;;
6452;SDS011;3259;51.080;13.712;2023-04-24T07:02:48;3.15;;;0.82;;
6452;SDS011;3259;51.080;13.712;2023-04-24T07:05:37;1.00;;;0.60;;
6452;SDS011;3259;51.080;13.712;2023-04-24T07:08:26;1.30;;;0.70;;
6452;SDS011;3259;51.080;13.712;2023-04-24T07:11:17;1.40;;;0.57;;
6452;SDS011;3259;51.080;13.712;2023-04-24T07:14:07;1.13;;;0.80;;
6452;SDS011;3259;51.080;13.712;2023-04-24T07:16:56;3.78;;;0.80;;
6452;SDS011;3259;51.080;13.712;2023-04-24T07:19:46;0.65;;;0.40;;
6452;SDS011;3259;51.080;13.712;2023-04-24T07:22:35;1.52;;;0.47;;
6452;SDS011;3259;51.080;13.712;2023-04-24T07:25:24;2.08;;;0.75;;
6452;SDS011;3259;51.080;13.712;2023-04-24T07:28:12;1.77;;;0.57;;
6452;SDS011;3259;51.080;13.712;2023-04-24T07:31:02;0.90;;;0.40;;
6452;SDS011;3259;51.080;13.712;2023-04-24T07:33:51;0.90;;;0.30;;
6452;SDS011;3259;51.080;13.712;2023-04-24T07:36:41;3.92;;;0.40;;
6452;SDS011;3259;51.080;13.712;2023-04-24T07:39:30;1.45;;;0.30;;
6452;SDS011;3259;51.080;13.712;2023-04-24T07:42:19;0.25;;;0.20;;
6452;SDS011;3259;51.080;13.712;2023-04-24T07:45:08;0.52;;;0.30;;
6452;SDS011;3259;51.080;13.712;2023-04-24T07:47:57;0.82;;;0.50;;
6452;SDS011;3259;51.080;13.712;2023-04-24T07:50:46;1.33;;;0.30;;
6452;SDS011;3259;51.080;13.712;2023-04-24T07:53:36;0.30;;;0.13;;
6452;SDS011;3259;51.080;13.712;2023-04-24T07:56:24;0.15;;;0.15;;
6452;SDS011;3259;51.080;13.712;2023-04-24T07:59:13;0.10;;;0.10;;
6452;SDS011;3259;51.080;13.712;2023-04-24T08:02:02;3.42;;;0.50;;
6452;SDS011;3259;51.080;13.712;2023-04-24T08:04:52;0.15;;;0.15;;
6452;SDS011;3259;51.080;13.712;2023-04-24T08:07:42;0.40;;;0.30;;
6452;SDS011;3259;51.080;13.712;2023-04-24T08:10:34;0.80;;;0.30;;
6452;SDS011;3259;51.080;13.712;2023-04-24T08:13:23;1.48;;;0.60;;
6452;SDS011;3259;51.080;13.712;2023-04-24T08:16:12;0.20;;;0.20;;
6452;SDS011;3259;51.080;13.712;2023-04-24T08:19:01;0.70;;;0.47;;
6452;SDS011;3259;51.080;13.712;2023-04-24T08:21:49;0.52;;;0.20;;
6452;SDS011;3259;51.080;13.712;2023-04-24T08:24:38;2.58;;;0.20;;
6452;SDS011;3259;51.080;13.712;2023-04-24T08:27:28;0.30;;;0.10;;
6452;SDS011;3259;51.080;13.712;2023-04-24T08:30:19;0.47;;;0.25;;
6452;SDS011;3259;51.080;13.712;2023-04-24T08:33:08;2.00;;;0.30;;
6452;SDS011;3259;51.080;13.712;2023-04-24T08:35:57;2.50;;;0.20;;
6452;SDS011;3259;51.080;13.712;2023-04-24T08:38:47;0.47;;;0.10;;
6452;SDS011;3259;51.080;13.712;2023-04-24T08:41:36;0.20;;;0.20;;
6452;SDS011;3259;51.080;13.712;2023-04-24T08:44:27;0.88;;;0.20;;
6452;SDS011;3259;51.080;13.712;2023-04-24T08:47:16;0.52;;;0.20;;
6452;SDS011;3259;51.080;13.712;2023-04-24T08:50:06;0.60;;;0.22;;
6452;SDS011;3259;51.080;13.712;2023-04-24T08:53:00;1.38;;;0.10;;
6452;SDS011;3259;51.080;13.712;2023-04-24T08:55:50;1.10;;;0.20;;
6452;SDS011;3259;51.080;13.712;2023-04-24T08:58:39;0.98;;;0.28;;
6452;SDS011;3259;51.080;13.712;2023-04-24T09:01:30;1.63;;;0.17;;
6452;SDS011;3259;51.080;13.712;2023-04-24T09:04:21;1.70;;;0.40;;
6452;SDS011;3259;51.080;13.712;2023-04-24T09:07:12;0.55;;;0.10;;
6452;SDS011;3259;51.080;13.712;2023-04-24T09:10:05;0.65;;;0.20;;
6452;SDS011;3259;51.080;13.712;2023-04-24T09:12:55;0.93;;;0.22;;
6452;SDS011;3259;51.080;13.712;2023-04-24T09:15:45;0.10;;;0.10;;
6452;SDS011;3259;51.080;13.712;2023-04-24T09:18:35;0.20;;;0.10;;
6452;SDS011;3259;51.080;13.712;2023-04-24T09:21:24;0.28;;;0.10;;
6452;SDS011;3259;51.080;13.712;2023-04-24T09:24:20;0.82;;;0.20;;
6452;SDS011;3259;51.080;13.712;2023-04-24T09:27:10;0.35;;;0.20;;
6452;SDS011;3259;51.080;13.712;2023-04-24T09:30:01;0.93;;;0.10;;
6452;SDS011;3259;51.080;13.712;2023-04-24T09:32:53;1.33;;;0.10;;
6452;SDS011;3259;51.080;13.712;2023-04-24T09:35:59;0.30;;;0.10;;
6452;SDS011;3259;51.080;13.712;2023-04-24T09:38:48;0.80;;;0.20;;
6452;SDS011;3259;51.080;13.712;2023-04-24T09:41:46;1.08;;;0.20;;
6452;SDS011;3259;51.080;13.712;2023-04-24T09:44:36;0.65;;;0.47;;
6452;SDS011;3259;51.080;13.712;2023-04-24T09:47:25;0.40;;;0.20;;
6452;SDS011;3259;51.080;13.712;2023-04-24T09:50:14;0.45;;;0.30;;
6452;SDS011;3259;51.080;13.712;2023-04-24T09:53:09;1.33;;;0.55;;
6452;SDS011;3259;51.080;13.712;2023-04-24T09:56:01;0.63;;;0.32;;
6452;SDS011;3259;51.080;13.712;2023-04-24T09:58:51;3.63;;;0.70;;
6452;SDS011;3259;51.080;13.712;2023-04-24T10:01:39;0.20;;;0.10;;
6452;SDS011;3259;51.080;13.712;2023-04-24T10:04:31;0.40;;;0.20;;
6452;SDS011;3259;51.080;13.712;2023-04-24T10:07:19;0.30;;;0.30;;
6452;SDS011;3259;51.080;13.712;2023-04-24T10:10:10;0.30;;;0.30;;
6452;SDS011;3259;51.080;13.712;2023-04-24T10:12:59;2.92;;;0.25;;
6452;SDS011;3259;51.080;13.712;2023-04-24T10:15:49;4.90;;;0.20;;
6452;SDS011;3259;51.080;13.712;2023-04-24T10:18:38;0.10;;;0.10;;
6452;SDS011;3259;51.080;13.712;2023-04-24T10:21:30;0.30;;;0.13;;
6452;SDS011;3259;51.080;13.712;2023-04-24T10:24:20;1.13;;;0.10;;
6452;SDS011;3259;51.080;13.712;2023-04-24T10:27:10;0.22;;;0.22;;
6452;SDS011;3259;51.080;13.712;2023-04-24T10:30:01;187.15;;;74.47;;
6452;SDS011;3259;51.080;13.712;2023-04-24T10:32:50;85.18;;;33.13;;
6452;SDS011;3259;51.080;13.712;2023-04-24T10:35:40;103.88;;;39.13;;
6452;SDS011;3259;51.080;13.712;2023-04-24T10:38:31;65.82;;;29.38;;
6452;SDS011;3259;51.080;13.712;2023-04-24T10:41:20;58.35;;;23.88;;
6452;SDS011;3259;51.080;13.712;2023-04-24T10:44:11;33.28;;;15.35;;
6452;SDS011;3259;51.080;13.712;2023-04-24T10:47:01;24.58;;;11.35;;
6452;SDS011;3259;51.080;13.712;2023-04-24T10:49:50;17.80;;;8.55;;
6452;SDS011;3259;51.080;13.712;2023-04-24T10:52:45;13.18;;;6.00;;
6452;SDS011;3259;51.080;13.712;2023-04-24T10:55:44;10.38;;;5.32;;
6452;SDS011;3259;51.080;13.712;2023-04-24T10:58:38;9.57;;;3.08;;
6452;SDS011;3259;51.080;13.712;2023-04-24T11:01:32;3.78;;;2.00;;
6452;SDS011;3259;51.080;13.712;2023-04-24T11:04:31;3.33;;;1.98;;
6452;SDS011;3259;51.080;13.712;2023-04-24T11:07:21;2.33;;;1.25;;
6452;SDS011;3259;51.080;13.712;2023-04-24T11:10:10;1.23;;;1.00;;
6452;SDS011;3259;51.080;13.712;2023-04-24T11:13:16;2.88;;;0.65;;
6452;SDS011;3259;51.080;13.712;2023-04-24T11:16:12;0.73;;;0.70;;
6452;SDS011;3259;51.080;13.712;2023-04-24T11:19:04;2.83;;;0.65;;
6452;SDS011;3259;51.080;13.712;2023-04-24T11:21:55;0.93;;;0.40;;
6452;SDS011;3259;51.080;13.712;2023-04-24T11:24:49;0.43;;;0.28;;
6452;SDS011;3259;51.080;13.712;2023-04-24T11:27:39;0.22;;;0.20;;
6452;SDS011;3259;51.080;13.712;2023-04-24T11:30:30;0.13;;;0.13;;
6452;SDS011;3259;51.080;13.712;2023-04-24T11:33:21;0.32;;;0.20;;
6452;SDS011;3259;51.080;13.712;2023-04-24T11:36:12;1.23;;;0.20;;
6452;SDS011;3259;51.080;13.712;2023-04-24T11:39:01;0.15;;;0.15;;
6452;SDS011;3259;51.080;13.712;2023-04-24T11:41:50;3.10;;;0.43;;
6452;SDS011;3259;51.080;13.712;2023-04-24T11:44:39;4.07;;;0.20;;
6452;SDS011;3259;51.080;13.712;2023-04-24T11:47:29;0.95;;;0.30;;
6452;SDS011;3259;51.080;13.712;2023-04-24T11:50:21;0.10;;;0.10;;
6452;SDS011;3259;51.080;13.712;2023-04-24T11:53:13;0.32;;;0.20;;
6452;SDS011;3259;51.080;13.712;2023-04-24T11:56:02;0.20;;;0.10;;
6452;SDS011;3259;51.080;13.712;2023-04-24T11:58:52;0.17;;;0.17;;
6452;SDS011;3259;51.080;13.712;2023-04-24T12:01:44;1.08;;;0.20;;
6452;SDS011;3259;51.080;13.712;2023-04-24T12:04:43;0.20;;;0.10;;
6452;SDS011;3259;51.080;13.712;2023-04-24T12:07:36;0.28;;;0.10;;
6452;SDS011;3259;51.080;13.712;2023-04-24T12:10:31;0.90;;;0.20;;
6452;SDS011;3259;51.080;13.712;2023-04-24T12:13:21;0.80;;;0.30;;
6452;SDS011;3259;51.080;13.712;2023-04-24T12:16:09;0.38;;;0.10;;
6452;SDS011;3259;51.080;13.712;2023-04-24T12:18:58;0.10;;;0.10;;
6452;SDS011;3259;51.080;13.712;2023-04-24T12:21:58;0.10;;;0.10;;
6452;SDS011;3259;51.080;13.712;2023-04-24T12:25:01;0.22;;;0.10;;
6452;SDS011;3259;51.080;13.712;2023-04-24T12:27:53;0.30;;;0.13;;
6452;SDS011;3259;51.080;13.712;2023-04-24T12:30:44;0.28;;;0.22;;
6452;SDS011;3259;51.080;13.712;2023-04-24T12:33:36;0.20;;;0.20;;
6452;SDS011;3259;51.080;13.712;2023-04-24T12:36:25;1.35;;;0.10;;
6452;SDS011;3259;51.080;13.712;2023-04-24T12:39:14;0.15;;;0.10;;
6452;SDS011;3259;51.080;13.712;2023-04-24T12:42:04;1.02;;;0.10;;
6452;SDS011;3259;51.080;13.712;2023-04-24T12:44:55;0.57;;;0.30;;
6452;SDS011;3259;51.080;13.712;2023-04-24T12:47:48;0.52;;;0.13;;
6452;SDS011;3259;51.080;13.712;2023-04-24T12:50:37;1.13;;;0.20;;
6452;SDS011;3259;51.080;13.712;2023-04-24T12:53:27;1.08;;;0.20;;
6452;SDS011;3259;51.080;13.712;2023-04-24T12:56:17;2.20;;;0.20;;
6452;SDS011;3259;51.080;13.712;2023-04-24T12:59:07;0.55;;;0.20;;
6452;SDS011;3259;51.080;13.712;2023-04-24T13:01:57;4.03;;;0.30;;
6452;SDS011;3259;51.080;13.712;2023-04-24T13:04:46;0.30;;;0.20;;
6452;SDS011;3259;51.080;13.712;2023-04-24T13:07:35;1.95;;;0.20;;
6452;SDS011;3259;51.080;13.712;2023-04-24T13:10:23;3.75;;;0.47;;
6452;SDS011;3259;51.080;13.712;2023-04-24T13:13:12;0.38;;;0.20;;
6452;SDS011;3259;51.080;13.712;2023-04-24T13:16:01;0.55;;;0.40;;
6452;SDS011;3259;51.080;13.712;2023-04-24T13:18:51;1.80;;;0.30;;
6452;SDS011;3259;51.080;13.712;2023-04-24T13:21:39;5.20;;;0.60;;
6452;SDS011;3259;51.080;13.712;2023-04-24T13:24:28;0.30;;;0.30;;
6452;SDS011;3259;51.080;13.712;2023-04-24T13:27:17;1.35;;;0.50;;
6452;SDS011;3259;51.080;13.712;2023-04-24T13:30:07;0.95;;;0.30;;
6452;SDS011;3259;51.080;13.712;2023-04-24T13:32:56;1.65;;;0.32;;
6452;SDS011;3259;51.080;13.712;2023-04-24T13:35:46;1.20;;;0.50;;
6452;SDS011;3259;51.080;13.712;2023-04-24T13:38:34;1.05;;;0.43;;
6452;SDS011;3259;51.080;13.712;2023-04-24T13:41:23;0.57;;;0.28;;
6452;SDS011;3259;51.080;13.712;2023-04-24T13:44:12;4.38;;;0.38;;
6452;SDS011;3259;51.080;13.712;2023-04-24T13:47:00;2.72;;;0.30;;
6452;SDS011;3259;51.080;13.712;2023-04-24T13:49:49;0.47;;;0.30;;
6452;SDS011;3259;51.080;13.712;2023-04-24T13:52:39;0.20;;;0.10;;
6452;SDS011;3259;51.080;13.712;2023-04-24T13:55:28;0.35;;;0.20;;
6452;SDS011;3259;51.080;13.712;2023-04-24T13:58:17;0.85;;;0.25;;
6452;SDS011;3259;51.080;13.712;2023-04-24T14:01:06;0.25;;;0.25;;
6452;SDS011;3259;51.080;13.712;2023-04-24T14:03:55;1.55;;;0.22;;
6452;SDS011;3259;51.080;13.712;2023-04-24T14:06:44;2.67;;;0.30;;
6452;SDS011;3259;51.080;13.712;2023-04-24T14:09:34;0.25;;;0.17;;
6452;SDS011;3259;51.080;13.712;2023-04-24T14:12:22;1.98;;;0.20;;
6452;SDS011;3259;51.080;13.712;2023-04-24T14:15:12;0.85;;;0.50;;
6452;SDS011;3259;51.080;13.712;2023-04-24T14:18:01;1.08;;;0.20;;
6452;SDS011;3259;51.080;13.712;2023-04-24T14:20:52;6.18;;;0.20;;
6452;SDS011;3259;51.080;13.712;2023-04-24T14:23:40;0.70;;;0.20;;
6452;SDS011;3259;51.080;13.712;2023-04-24T14:26:30;1.20;;;0.50;;
6452;SDS011;3259;51.080;13.712;2023-04-24T14:29:19;0.30;;;0.20;;
6452;SDS011;3259;51.080;13.712;2023-04-24T14:32:08;1.98;;;0.40;;
6452;SDS011;3259;51.080;13.712;2023-04-24T14:34:56;0.65;;;0.20;;
6452;SDS011;3259;51.080;13.712;2023-04-24T14:37:45;1.40;;;0.20;;
6452;SDS011;3259;51.080;13.712;2023-04-24T14:40:35;0.17;;;0.17;;
6452;SDS011;3259;51.080;13.712;2023-04-24T14:43:45;0.35;;;0.30;;
6452;SDS011;3259;51.080;13.712;2023-04-24T14:46:33;0.20;;;0.20;;
6452;SDS011;3259;51.080;13.712;2023-04-24T14:49:23;0.20;;;0.20;;
6452;SDS011;3259;51.080;13.712;2023-04-24T14:52:11;2.08;;;0.30;;
6452;SDS011;3259;51.080;13.712;2023-04-24T14:55:00;1.98;;;0.30;;
6452;SDS011;3259;51.080;13.712;2023-04-24T14:57:48;5.97;;;0.40;;
6452;SDS011;3259;51.080;13.712;2023-04-24T15:00:38;0.25;;;0.25;;
6452;SDS011;3259;51.080;13.712;2023-04-24T15:03:27;0.40;;;0.30;;
6452;SDS011;3259;51.080;13.712;2023-04-24T15:06:16;0.35;;;0.35;;
6452;SDS011;3259;51.080;13.712;2023-04-24T15:09:05;0.30;;;0.25;;
6452;SDS011;3259;51.080;13.712;2023-04-24T15:11:53;0.90;;;0.20;;
6452;SDS011;3259;51.080;13.712;2023-04-24T15:14:43;0.10;;;0.10;;
6452;SDS011;3259;51.080;13.712;2023-04-24T15:17:32;0.50;;;0.20;;
6452;SDS011;3259;51.080;13.712;2023-04-24T15:20:21;0.38;;;0.20;;
6452;SDS011;3259;51.080;13.712;2023-04-24T15:23:10;0.20;;;0.20;;
6452;SDS011;3259;51.080;13.712;2023-04-24T15:25:59;4.03;;;0.30;;
6452;SDS011;3259;51.080;13.712;2023-04-24T15:28:48;0.88;;;0.20;;
6452;SDS011;3259;51.080;13.712;2023-04-24T15:31:38;2.05;;;0.32;;
6452;SDS011;3259;51.080;13.712;2023-04-24T15:34:28;1.73;;;0.30;;
6452;SDS011;3259;51.080;13.712;2023-04-24T15:37:18;0.57;;;0.20;;
6452;SDS011;3259;51.080;13.712;2023-04-24T15:40:07;0.15;;;0.15;;
6452;SDS011;3259;51.080;13.712;2023-04-24T15:42:58;1.25;;;0.30;;
6452;SDS011;3259;51.080;13.712;2023-04-24T15:45:46;0.85;;;0.30;;
6452;SDS011;3259;51.080;13.712;2023-04-24T15:48:37;0.57;;;0.20;;
6452;SDS011;3259;51.080;13.712;2023-04-24T15:51:29;0.20;;;0.20;;
6452;SDS011;3259;51.080;13.712;2023-04-24T15:54:18;0.63;;;0.60;;
6452;SDS011;3259;51.080;13.712;2023-04-24T15:57:07;0.30;;;0.30;;
6452;SDS011;3259;51.080;13.712;2023-04-24T15:59:55;2.17;;;0.30;;
6452;SDS011;3259;51.080;13.712;2023-04-24T16:02:44;0.85;;;0.30;;
6452;SDS011;3259;51.080;13.712;2023-04-24T16:05:33;0.75;;;0.25;;
6452;SDS011;3259;51.080;13.712;2023-04-24T16:08:23;1.48;;;0.20;;
6452;SDS011;3259;51.080;13.712;2023-04-24T16:11:12;0.65;;;0.30;;
6452;SDS011;3259;51.080;13.712;2023-04-24T16:14:00;0.60;;;0.30;;
6452;SDS011;3259;51.080;13.712;2023-04-24T16:16:49;2.60;;;0.30;;
6452;SDS011;3259;51.080;13.712;2023-04-24T16:19:40;1.52;;;0.20;;
6452;SDS011;3259;51.080;13.712;2023-04-24T16:22:29;0.20;;;0.20;;
6452;SDS011;3259;51.080;13.712;2023-04-24T16:25:21;0.88;;;0.30;;
6452;SDS011;3259;51.080;13.712;2023-04-24T16:28:09;1.35;;;0.40;;
6452;SDS011;3259;51.080;13.712;2023-04-24T16:31:00;0.17;;;0.17;;
6452;SDS011;3259;51.080;13.712;2023-04-24T16:33:49;2.58;;;0.30;;
6452;SDS011;3259;51.080;13.712;2023-04-24T16:36:37;4.05;;;0.40;;
6452;SDS011;3259;51.080;13.712;2023-04-24T16:39:26;0.95;;;0.40;;
6452;SDS011;3259;51.080;13.712;2023-04-24T16:42:16;1.17;;;0.10;;
6452;SDS011;3259;51.080;13.712;2023-04-24T16:45:05;3.45;;;0.30;;
6452;SDS011;3259;51.080;13.712;2023-04-24T16:47:55;0.40;;;0.20;;
6452;SDS011;3259;51.080;13.712;2023-04-24T16:50:43;0.82;;;0.20;;
6452;SDS011;3259;51.080;13.712;2023-04-24T16:53:33;57.95;;;3.75;;
6452;SDS011;3259;51.080;13.712;2023-04-24T16:56:21;19.48;;;1.77;;
6452;SDS011;3259;51.080;13.712;2023-04-24T16:59:11;33.60;;;1.95;;
6452;SDS011;3259;51.080;13.712;2023-04-24T17:02:00;73.38;;;5.50;;
6452;SDS011;3259;51.080;13.712;2023-04-24T17:04:49;44.03;;;3.50;;
6452;SDS011;3259;51.080;13.712;2023-04-24T17:07:38;7.60;;;0.70;;
6452;SDS011;3259;51.080;13.712;2023-04-24T17:10:27;13.60;;;0.80;;
6452;SDS011;3259;51.080;13.712;2023-04-24T17:13:16;2.33;;;0.60;;
6452;SDS011;3259;51.080;13.712;2023-04-24T17:16:06;8.82;;;0.82;;
6452;SDS011;3259;51.080;13.712;2023-04-24T17:18:55;1.90;;;0.20;;